| time (UTC) | temp C | wind direction | speed KPH | gust KPH | rain 1hr cm | rain 24hr cm | rain mn cm | humidity % | barometer mb |
| 20260504215002 | 17 | 3 | 11.3 | 22.5 | 0.00 | 0.00 | 0.05 | 41 | 1010.0 |
| 20260504214502 | 16 | 353 | 17.7 | 27.4 | 0.00 | 0.00 | 0.05 | 41 | 1010.3 |
| 20260504213502 | 15 | 357 | 22.5 | 27.4 | 0.00 | 0.00 | 0.05 | 42 | 1010.4 |
| 20260504213002 | 15 | 11 | 17.7 | 19.3 | 0.00 | 0.00 | 0.05 | 45 | 1010.5 |
| 20260504212502 | 15 | 354 | 12.9 | 14.5 | 0.00 | 0.00 | 0.05 | 48 | 1010.3 |
| 20260504212002 | 15 | 14 | 12.9 | 16.1 | 0.00 | 0.00 | 0.05 | 50 | 1010.5 |
| 20260504210503 | 13 | 38 | 3.2 | 6.4 | 0.00 | 0.00 | 0.05 | 50 | 1010.3 |
| 20260504210003 | 13 | 286 | 1.6 | 3.2 | 0.00 | 0.00 | 0.05 | 59 | 1010.5 |
| 20260504205505 | 13 | 13 | 4.8 | 8.0 | 0.05 | 0.00 | 0.05 | 56 | 1010.5 |
| 20260504205002 | 12 | 68 | 3.2 | 9.7 | 0.13 | 0.00 | 0.05 | 59 | 1010.8 |
| 20260504204502 | 13 | 2 | 8.0 | 14.5 | 0.00 | 0.00 | 0.03 | 54 | 1011.3 |
| 20260504204003 | 14 | 336 | 12.9 | 24.1 | 0.00 | 0.00 | 0.03 | 50 | 1011.3 |
| 20260504203002 | 14 | 355 | 4.8 | 9.7 | 0.00 | 0.00 | 0.03 | 45 | 1011.5 |
| 20260504202502 | 14 | 7 | 4.8 | 8.0 | 0.00 | 0.00 | 0.03 | 47 | 1011.4 |
| 20260504201502 | 14 | 10 | 6.4 | 14.5 | 0.00 | 0.00 | 0.03 | 46 | 1011.4 |
| 20260504201003 | 13 | 99 | 3.2 | 4.8 | 0.00 | 0.00 | 0.03 | 52 | 1011.1 |
| 20260504200502 | 13 | 46 | 3.2 | 6.4 | 0.00 | 0.00 | 0.03 | 53 | 1011.1 |
| 20260504195502 | 13 | 27 | 6.4 | 9.7 | 0.13 | 0.00 | 0.03 | 56 | 1010.9 |
| 20260504195002 | 13 | 48 | 4.8 | 17.7 | 0.18 | 0.00 | 0.03 | 59 | 1011.1 |
| 20260504194002 | 16 | 5 | 20.9 | 32.2 | 0.00 | 0.00 | 0.00 | 35 | 1010.5 |
| 20260504193502 | 16 | 7 | 19.3 | 37.0 | 0.00 | 0.00 | 0.00 | 32 | 1010.6 |
| 20260504193002 | 16 | 9 | 19.3 | 29.0 | 0.00 | 0.00 | 0.00 | 31 | 1010.6 |
| 20260504192502 | 18 | 355 | 29.0 | 33.8 | 0.00 | 0.00 | 0.00 | 27 | 1010.5 |
| 20260504192003 | 19 | 354 | 8.0 | 8.0 | 0.00 | 0.00 | 0.00 | 24 | 1009.9 |
| 20260504191502 | 19 | 36 | 6.4 | 6.4 | 0.00 | 0.00 | 0.00 | 25 | 1010.3 |
| 20260504191002 | 19 | 12 | 8.0 | 12.9 | 0.00 | 0.00 | 0.00 | 24 | 1009.8 |
| 20260504190003 | 19 | 20 | 14.5 | 19.3 | 0.00 | 0.00 | 0.00 | 23 | 1009.7 |
| 20260504185503 | 20 | 345 | 9.7 | 20.9 | 0.00 | 0.00 | 0.00 | 25 | 1009.6 |
| 20260504185002 | 20 | 315 | 6.4 | 17.7 | 0.00 | 0.00 | 0.00 | 22 | 1009.2 |
| 20260504184502 | 20 | 226 | 4.8 | 17.7 | 0.00 | 0.00 | 0.00 | 22 | 1009.1 |
| 20260504184002 | 20 | 212 | 11.3 | 17.7 | 0.00 | 0.00 | 0.00 | 22 | 1009.1 |
| 20260504183502 | 20 | 285 | 8.0 | 8.0 | 0.00 | 0.00 | 0.00 | 21 | 1009.0 |
| 20260504182502 | 20 | 232 | 9.7 | 17.7 | 0.00 | 0.00 | 0.00 | 21 | 1009.3 |
| 20260504181503 | 20 | 212 | 9.7 | 12.9 | 0.00 | 0.00 | 0.00 | 23 | 1009.2 |
| 20260504180502 | 21 | 210 | 8.0 | 11.3 | 0.00 | 0.00 | 0.00 | 22 | 1009.3 |
| 20260504180002 | 21 | 186 | 3.2 | 12.9 | 0.00 | 0.00 | 0.00 | 22 | 1009.3 |
| 20260504175502 | 21 | 68 | 3.2 | 9.7 | 0.00 | 0.00 | 0.00 | 22 | 1009.2 |
| 20260504175002 | 21 | 242 | 8.0 | 14.5 | 0.00 | 0.00 | 0.00 | 21 | 1009.3 |
| 20260504174503 | 22 | 307 | 4.8 | 9.7 | 0.00 | 0.00 | 0.00 | 20 | 1009.1 |
| 20260504174002 | 22 | 320 | 4.8 | 8.0 | 0.00 | 0.00 | 0.00 | 19 | 1009.2 |
| 20260504173502 | 22 | 348 | 8.0 | 9.7 | 0.00 | 0.00 | 0.00 | 19 | 1009.8 |
| 20260504173002 | 22 | 356 | 12.9 | 17.7 | 0.00 | 0.00 | 0.00 | 20 | 1009.4 |
| 20260504172502 | 22 | 347 | 9.7 | 17.7 | 0.00 | 0.00 | 0.00 | 19 | 1009.4 |
| 20260504172002 | 22 | 327 | 9.7 | 17.7 | 0.00 | 0.00 | 0.00 | 19 | 1009.7 |
| 20260504171503 | 22 | 312 | 9.7 | 17.7 | 0.00 | 0.00 | 0.00 | 19 | 1009.6 |
| 20260504171002 | 22 | 330 | 6.4 | 16.1 | 0.00 | 0.00 | 0.00 | 18 | 1009.6 |
| 20260504170502 | 22 | 325 | 16.1 | 17.7 | 0.00 | 0.00 | 0.00 | 19 | 1009.4 |
| 20260504151002 | 20 | 0 | 6.4 | 12.9 | 0.00 | 0.00 | 0.00 | 23 | 1009.8 |
| 20260504150503 | 20 | 226 | 3.2 | 11.3 | 0.00 | 0.00 | 0.00 | 23 | 1009.8 |
| 20260504141002 | 11 | 99 | 4.8 | 9.7 | 0.00 | 0.00 | 0.00 | 45 | 1010.4 |
| 20260504140502 | 11 | 98 | 3.2 | 8.0 | 0.00 | 0.00 | 0.00 | 46 | 1010.4 |
| 20260504130502 | 8 | 55 | 0.0 | 3.2 | 0.00 | 0.00 | 0.00 | 50 | 1010.4 |
| 20260504110502 | 6 | 99 | 1.6 | 3.2 | 0.00 | 0.00 | 0.00 | 54 | 1010.6 |
| 20260504100503 | 10 | 218 | 0.0 | 0.0 | 0.00 | 0.00 | 0.00 | 39 | 1010.8 |
| 20260504082002 | 9 | 5 | 3.2 | 4.8 | 0.00 | 0.00 | 0.00 | 49 | 1011.5 |
| 20260504081503 | 9 | 9 | 3.2 | 3.2 | 0.00 | 0.00 | 0.00 | 49 | 1011.7 |
| 20260504081002 | 10 | 3 | 3.2 | 4.8 | 0.00 | 0.00 | 0.00 | 48 | 1011.9 |
| 20260504080503 | 10 | 356 | 3.2 | 3.2 | 0.00 | 0.00 | 0.00 | 45 | 1011.9 |
| 20260504050503 | 13 | 9 | 6.4 | 12.9 | 0.00 | 0.00 | 0.00 | 33 | 1012.7 |
| 20260504050002 | 13 | 9 | 9.7 | 11.3 | 0.00 | 0.00 | 0.00 | 34 | 1012.7 |
| 20260504045502 | 13 | 349 | 11.3 | 16.1 | 0.00 | 0.00 | 0.00 | 34 | 1013.1 |
| 20260504045002 | 13 | 355 | 8.0 | 14.5 | 0.00 | 0.00 | 0.00 | 33 | 1012.8 |
| 20260504044503 | 13 | 353 | 9.7 | 12.9 | 0.00 | 0.00 | 0.00 | 33 | 1012.8 |
| 20260504044002 | 13 | 357 | 9.7 | 12.9 | 0.00 | 0.00 | 0.00 | 33 | 1013.0 |
| 20260504043502 | 13 | 355 | 11.3 | 16.1 | 0.00 | 0.00 | 0.00 | 32 | 1012.7 |
| 20260504043002 | 13 | 6 | 9.7 | 12.9 | 0.00 | 0.00 | 0.00 | 32 | 1013.1 |
| 20260504042502 | 15 | 354 | 11.3 | 12.9 | 0.00 | 0.00 | 0.00 | 31 | 1013.0 |
| 20260504042003 | 14 | 351 | 14.5 | 19.3 | 0.00 | 0.00 | 0.00 | 30 | 1013.0 |
| 20260504040503 | 15 | 9 | 9.7 | 16.1 | 0.00 | 0.00 | 0.00 | 28 | 1013.0 |
| 20260504040003 | 15 | 353 | 9.7 | 14.5 | 0.00 | 0.00 | 0.00 | 27 | 1013.1 |
| 20260504035502 | 15 | 4 | 11.3 | 14.5 | 0.00 | 0.00 | 0.00 | 26 | 1013.1 |
| 20260504035002 | 16 | 1 | 8.0 | 17.7 | 0.00 | 0.00 | 0.00 | 25 | 1012.8 |
| 20260504034002 | 16 | 349 | 11.3 | 12.9 | 0.00 | 0.00 | 0.00 | 22 | 1013.0 |
| 20260504033502 | 16 | 7 | 8.0 | 14.5 | 0.00 | 0.00 | 0.00 | 21 | 1012.8 |
| 20260504033003 | 17 | 358 | 8.0 | 17.7 | 0.00 | 0.00 | 0.00 | 21 | 1012.7 |
| 20260504032503 | 17 | 6 | 8.0 | 12.9 | 0.00 | 0.00 | 0.00 | 21 | 1012.6 |
| 20260504032002 | 16 | 350 | 11.3 | 14.5 | 0.00 | 0.00 | 0.00 | 21 | 1012.7 |
| 20260504031502 | 16 | 3 | 11.3 | 11.3 | 0.00 | 0.00 | 0.00 | 22 | 1012.5 |
| 20260504031002 | 16 | 5 | 6.4 | 8.0 | 0.00 | 0.00 | 0.00 | 24 | 1012.4 |
| 20260504030503 | 16 | 346 | 6.4 | 12.9 | 0.00 | 0.00 | 0.00 | 22 | 1012.2 |
| 20260504030002 | 16 | 7 | 12.9 | 12.9 | 0.00 | 0.00 | 0.00 | 24 | 1012.4 |
| 20260504025502 | 16 | 20 | 6.4 | 8.0 | 0.00 | 0.00 | 0.00 | 22 | 1012.1 |
| 20260504025002 | 16 | 357 | 3.2 | 3.2 | 0.00 | 0.00 | 0.00 | 23 | 1011.8 |
| 20260504024503 | 17 | 326 | 0.0 | 3.2 | 0.00 | 0.00 | 0.00 | 22 | 1011.8 |
| 20260504024003 | 17 | 181 | 0.0 | 3.2 | 0.00 | 0.00 | 0.00 | 22 | 1011.9 |
| 20260504023502 | 16 | 227 | 3.2 | 3.2 | 0.00 | 0.00 | 0.00 | 24 | 1011.9 |
| 20260504023003 | 17 | 283 | 0.0 | 1.6 | 0.00 | 0.00 | 0.00 | 23 | 1011.8 |
| 20260504022502 | 17 | 193 | 1.6 | 1.6 | 0.00 | 0.00 | 0.00 | 23 | 1011.8 |
| 20260504022002 | 17 | 233 | 0.0 | 3.2 | 0.00 | 0.00 | 0.00 | 22 | 1011.9 |
| 20260504021502 | 17 | 220 | 3.2 | 3.2 | 0.00 | 0.00 | 0.00 | 21 | 1011.9 |
| 20260504021002 | 17 | 248 | 1.6 | 3.2 | 0.00 | 0.00 | 0.00 | 22 | 1011.5 |
| 20260504020002 | 17 | 315 | 0.0 | 3.2 | 0.00 | 0.00 | 0.00 | 23 | 1011.5 |
| 20260504015502 | 17 | 229 | 0.0 | 3.2 | 0.00 | 0.00 | 0.00 | 23 | 1011.5 |
| 20260504015002 | 17 | 63 | 1.6 | 1.6 | 0.00 | 0.00 | 0.00 | 23 | 1011.7 |
| 20260504014502 | 17 | 13 | 0.0 | 3.2 | 0.00 | 0.00 | 0.00 | 24 | 1011.7 |
| 20260504013502 | 18 | 31 | 0.0 | 1.6 | 0.00 | 0.00 | 0.00 | 23 | 1011.7 |
| 20260504012502 | 19 | 202 | 0.0 | 4.8 | 0.00 | 0.00 | 0.00 | 22 | 1011.4 |
| 20260504011503 | 20 | 202 | 1.6 | 3.2 | 0.00 | 0.00 | 0.00 | 21 | 1011.5 |
| 20260504011002 | 20 | 202 | 0.0 | 3.2 | 0.00 | 0.00 | 0.00 | 23 | 1011.5 |
| 20260504010502 | 20 | 147 | 0.0 | 1.6 | 0.00 | 0.00 | 0.00 | 20 | 1011.8 |
| 20260504010003 | 19 | 217 | 0.0 | 0.0 | 0.00 | 0.00 | 0.00 | 21 | 1011.7 |
| 20260504005501 | 20 | 68 | 0.0 | 1.6 | 0.00 | 0.00 | 0.00 | 21 | 1011.7 |
| 20260504005002 | 20 | 43 | 0.0 | 1.6 | 0.00 | 0.00 | 0.00 | 21 | 1011.7 |
| 20260504004503 | 20 | 37 | 0.0 | 1.6 | 0.00 | 0.00 | 0.00 | 20 | 1011.9 |
| 20260504004002 | 20 | 43 | 0.0 | 1.6 | 0.00 | 0.00 | 0.00 | 21 | 1011.9 |
| 20260504003502 | 20 | 193 | 0.0 | 3.2 | 0.00 | 0.00 | 0.00 | 20 | 1011.9 |
| 20260504003003 | 20 | 216 | 3.2 | 6.4 | 0.00 | 0.00 | 0.00 | 20 | 1011.8 |
| 20260504002502 | 20 | 97 | 1.6 | 1.6 | 0.00 | 0.00 | 0.00 | 21 | 1011.9 |
| 20260504002002 | 21 | 345 | 0.0 | 3.2 | 0.00 | 0.00 | 0.00 | 19 | 1011.9 |
| 20260504001502 | 21 | 86 | 3.2 | 3.2 | 0.00 | 0.00 | 0.00 | 19 | 1012.0 |
| 20260504001002 | 21 | 34 | 0.0 | 3.2 | 0.00 | 0.00 | 0.00 | 19 | 1012.0 |
| 20260504000002 | 21 | 66 | 0.0 | 3.2 | 0.00 | 0.00 | 0.00 | 17 | 1011.9 |
| 20260503234502 | 21 | 4 | 6.4 | 8.0 | 0.00 | 0.00 | 0.00 | 17 | 1012.0 |
| 20260503234002 | 21 | 347 | 6.4 | 9.7 | 0.00 | 0.00 | 0.00 | 17 | 1012.0 |
| 20260503233502 | 21 | 348 | 6.4 | 11.3 | 0.00 | 0.00 | 0.00 | 17 | 1012.0 |
| 20260503233003 | 21 | 9 | 6.4 | 9.7 | 0.00 | 0.00 | 0.00 | 17 | 1012.2 |
| 20260503232002 | 21 | 346 | 11.3 | 17.7 | 0.00 | 0.00 | 0.00 | 16 | 1012.1 |
| 20260503231502 | 21 | 355 | 12.9 | 19.3 | 0.00 | 0.00 | 0.00 | 16 | 1012.1 |
| 20260503231003 | 21 | 320 | 8.0 | 14.5 | 0.00 | 0.00 | 0.00 | 15 | 1012.0 |
| 20260503230502 | 22 | 11 | 3.2 | 6.4 | 0.00 | 0.00 | 0.00 | 15 | 1012.0 |
| 20260503230002 | 22 | 230 | 0.0 | 3.2 | 0.00 | 0.00 | 0.00 | 15 | 1012.0 |
| 20260503225502 | 22 | 349 | 6.4 | 11.3 | 0.00 | 0.00 | 0.00 | 14 | 1011.8 |
| 20260503225003 | 22 | 34 | 0.0 | 3.2 | 0.00 | 0.00 | 0.00 | 16 | 1011.7 |
| 20260503224502 | 22 | 19 | 3.2 | 9.7 | 0.00 | 0.00 | 0.00 | 16 | 1011.9 |
| 20260503224002 | 22 | 5 | 6.4 | 11.3 | 0.00 | 0.00 | 0.00 | 16 | 1012.1 |
| 20260503223502 | 22 | 3 | 4.8 | 9.7 | 0.00 | 0.00 | 0.00 | 16 | 1011.7 |
| 20260503222502 | 22 | 8 | 4.8 | 12.9 | 0.00 | 0.00 | 0.00 | 16 | 1012.0 |
| 20260503221003 | 22 | 346 | 11.3 | 12.9 | 0.00 | 0.00 | 0.00 | 16 | 1012.0 |
| 20260503220502 | 22 | 6 | 3.2 | 4.8 | 0.00 | 0.00 | 0.00 | 17 | 1012.1 |
| 20260503220002 | 22 | 347 | 8.0 | 12.9 | 0.00 | 0.00 | 0.00 | 16 | 1012.5 |
| 20260503215502 | 22 | 352 | 6.4 | 14.5 | 0.00 | 0.00 | 0.00 | 17 | 1012.6 |